createdAt,value
2022-12-01T00:00:05.166Z,95873
2022-12-01T00:01:12.862Z,95874
2022-12-01T00:02:21.656Z,95866
2022-12-01T00:03:31.186Z,95867
2022-12-01T00:04:39.960Z,95871
2022-12-01T00:05:48.617Z,95866
2022-12-01T00:06:57.319Z,95863
2022-12-01T00:08:07.048Z,95862
2022-12-01T00:09:19.877Z,95867
2022-12-01T00:10:26.330Z,95862
2022-12-01T00:11:34.972Z,95862
2022-12-01T00:12:44.674Z,95861
2022-12-01T00:13:53.347Z,95853
2022-12-01T00:15:03.018Z,95853
2022-12-01T00:16:11.711Z,95857
2022-12-01T00:17:21.325Z,95850
2022-12-01T00:18:30.058Z,95855
2022-12-01T00:19:39.698Z,95850
2022-12-01T00:20:48.388Z,95853
2022-12-01T00:21:58.073Z,95854
2022-12-01T00:23:06.847Z,95856
2022-12-01T00:24:15.687Z,95853
2022-12-01T00:25:24.359Z,95851
2022-12-01T00:26:34.011Z,95848
2022-12-01T00:27:43.682Z,95855
2022-12-01T00:28:51.365Z,95850
2022-12-01T00:30:01.156Z,95851
2022-12-01T00:31:10.834Z,95856
2022-12-01T00:32:19.522Z,95854
2022-12-01T00:33:29.196Z,95850
2022-12-01T00:34:37.885Z,95852
2022-12-01T00:35:47.541Z,95854
2022-12-01T00:36:57.197Z,95856
2022-12-01T00:38:05.854Z,95855
2022-12-01T00:39:14.544Z,95855
2022-12-01T00:40:24.225Z,95852
2022-12-01T00:41:32.921Z,95852
2022-12-01T00:42:41.576Z,95852
2022-12-01T00:43:50.246Z,95851
2022-12-01T00:44:59.909Z,95851
2022-12-01T00:46:09.627Z,95847
2022-12-01T00:47:19.386Z,95849
2022-12-01T00:48:29.106Z,95846
2022-12-01T00:49:37.777Z,95844
2022-12-01T00:50:46.475Z,95846
2022-12-01T00:51:56.111Z,95848
2022-12-01T00:53:03.791Z,95852
2022-12-01T00:54:12.444Z,95850
2022-12-01T00:55:21.112Z,95851
2022-12-01T00:56:30.790Z,95851
2022-12-01T00:57:40.457Z,95850
2022-12-01T00:58:48.174Z,95852
2022-12-01T00:59:56.835Z,95856
2022-12-01T01:01:06.539Z,95855
2022-12-01T01:02:14.253Z,95854
2022-12-01T01:03:23.864Z,95853
2022-12-01T01:04:33.585Z,95854
2022-12-01T01:05:42.241Z,95861
2022-12-01T01:06:51.965Z,95861
2022-12-01T01:08:01.642Z,95859
2022-12-01T01:09:10.280Z,95861
2022-12-01T01:10:19.981Z,95863
2022-12-01T01:11:27.643Z,95859
2022-12-01T01:12:36.339Z,95867
2022-12-01T01:13:45.986Z,95869
2022-12-01T01:14:55.647Z,95861
2022-12-01T01:16:05.317Z,95865
2022-12-01T01:17:13.983Z,95858
2022-12-01T01:18:23.635Z,95858
2022-12-01T01:19:33.318Z,95855
2022-12-01T01:20:40.970Z,95864
2022-12-01T01:21:49.658Z,95861
2022-12-01T01:22:58.350Z,95865
2022-12-01T01:24:06.978Z,95861
2022-12-01T01:25:16.642Z,95863
2022-12-01T01:26:24.288Z,95858
2022-12-01T01:27:32.969Z,95866
2022-12-01T01:28:42.671Z,95862
2022-12-01T01:29:51.326Z,95861
2022-12-01T01:31:00.018Z,95863
2022-12-01T01:32:08.639Z,95869
2022-12-01T01:33:17.317Z,95870
2022-12-01T01:34:26.970Z,95870
2022-12-01T01:35:35.664Z,95864
2022-12-01T01:36:44.291Z,95864
2022-12-01T01:37:53.976Z,95857
2022-12-01T01:39:01.704Z,95862
2022-12-01T01:40:10.330Z,95865
2022-12-01T01:41:18.981Z,95852
2022-12-01T01:42:28.665Z,95850
2022-12-01T01:43:38.323Z,95847
2022-12-01T01:44:47.032Z,95849
2022-12-01T01:45:55.710Z,95851
2022-12-01T01:47:05.346Z,95855
2022-12-01T01:48:13.004Z,95861
2022-12-01T01:49:21.673Z,95858
2022-12-01T01:50:30.376Z,95860
2022-12-01T01:51:39.041Z,95859
2022-12-01T01:52:48.701Z,95856
2022-12-01T01:53:58.398Z,95847
2022-12-01T01:55:07.063Z,95849
2022-12-01T01:56:16.713Z,95850
2022-12-01T01:57:24.406Z,95855
2022-12-01T01:58:33.094Z,95856
2022-12-01T01:59:41.755Z,95852
2022-12-01T02:00:51.466Z,95843
2022-12-01T02:02:01.288Z,95838
2022-12-01T02:03:08.920Z,95832
2022-12-01T02:04:17.570Z,95837
2022-12-01T02:05:27.235Z,95844
2022-12-01T02:06:34.896Z,95842
2022-12-01T02:07:44.596Z,95845
2022-12-01T02:08:54.246Z,95850
2022-12-01T02:10:02.875Z,95851
2022-12-01T02:11:12.578Z,95848
2022-12-01T02:12:21.226Z,95847
2022-12-01T02:13:29.981Z,95850
2022-12-01T02:14:39.664Z,95845
2022-12-01T02:15:47.321Z,95845
2022-12-01T02:16:56.141Z,95845
2022-12-01T02:18:05.706Z,95846
2022-12-01T02:19:15.390Z,95843
2022-12-01T02:20:25.053Z,95851
2022-12-01T02:21:33.781Z,95848
2022-12-01T02:22:42.453Z,95844
2022-12-01T02:23:53.089Z,95841
2022-12-01T02:25:01.766Z,95843
2022-12-01T02:26:10.435Z,95848
2022-12-01T02:27:19.109Z,95840
2022-12-01T02:28:27.736Z,95839
2022-12-01T02:29:37.399Z,95834
2022-12-01T02:30:46.112Z,95833
2022-12-01T02:31:55.743Z,95835
2022-12-01T02:33:05.398Z,95838
2022-12-01T02:34:14.057Z,95838
2022-12-01T02:35:22.731Z,95837
2022-12-01T02:36:32.427Z,95841
2022-12-01T02:37:41.074Z,95841
2022-12-01T02:38:50.741Z,95837
2022-12-01T02:39:58.376Z,95837
2022-12-01T02:41:07.017Z,95836
2022-12-01T02:42:16.677Z,95832
2022-12-01T02:43:26.364Z,95835
2022-12-01T02:44:35.998Z,95836
2022-12-01T02:45:44.672Z,95833
2022-12-01T02:46:53.306Z,95835
2022-12-01T02:48:01.965Z,95835
2022-12-01T02:49:11.629Z,95834
2022-12-01T02:50:21.291Z,95837
2022-12-01T02:51:30.948Z,95832
2022-12-01T02:52:39.621Z,95827
2022-12-01T02:53:49.344Z,95829
2022-12-01T02:54:58.057Z,95832
2022-12-01T02:56:07.725Z,95832
2022-12-01T02:57:16.404Z,95827
2022-12-01T02:58:25.056Z,95827
2022-12-01T02:59:34.796Z,95827
2022-12-01T03:00:44.451Z,95829
2022-12-01T03:01:51.132Z,95829
2022-12-01T03:03:00.827Z,95829
2022-12-01T03:04:09.443Z,95828
2022-12-01T03:05:19.190Z,95833
2022-12-01T03:06:27.854Z,95827
2022-12-01T03:07:36.566Z,95832
2022-12-01T03:08:46.284Z,95831
2022-12-01T03:09:53.821Z,95825
2022-12-01T03:11:02.513Z,95824
2022-12-01T03:12:13.179Z,95827
2022-12-01T03:13:20.854Z,95823
2022-12-01T03:14:30.502Z,95824
2022-12-01T03:15:39.327Z,95823
2022-12-01T03:16:48.050Z,95819
2022-12-01T03:17:57.708Z,95823
2022-12-01T03:19:06.359Z,95824
2022-12-01T03:20:14.009Z,95820
2022-12-01T03:21:23.673Z,95816
2022-12-01T03:22:31.351Z,95817
2022-12-01T03:23:40.013Z,95818
2022-12-01T03:24:48.680Z,95824
2022-12-01T03:25:58.406Z,95819
2022-12-01T03:27:08.058Z,95822
2022-12-01T03:28:22.055Z,95822
2022-12-01T03:29:26.402Z,95823
2022-12-01T03:30:36.072Z,95815
2022-12-01T03:31:44.852Z,95817
2022-12-01T03:32:53.530Z,95816
2022-12-01T03:34:03.318Z,95819
2022-12-01T03:35:11.999Z,95818
2022-12-01T03:36:21.695Z,95819
2022-12-01T03:37:30.349Z,95815
2022-12-01T03:38:39.010Z,95818
2022-12-01T03:39:48.903Z,95818
2022-12-01T03:40:59.348Z,95821
2022-12-01T03:42:08.007Z,95819
2022-12-01T03:43:17.672Z,95820
2022-12-01T03:44:26.351Z,95820
2022-12-01T03:45:36.049Z,95823
2022-12-01T03:46:43.745Z,95824
2022-12-01T03:47:52.375Z,95818
2022-12-01T03:49:02.024Z,95820
2022-12-01T03:50:11.698Z,95819
2022-12-01T03:51:20.386Z,95823
2022-12-01T03:52:30.040Z,95818
2022-12-01T03:53:39.692Z,95821
2022-12-01T03:54:49.352Z,95823
2022-12-01T03:55:58.015Z,95818
2022-12-01T03:57:06.706Z,95822
2022-12-01T03:58:16.372Z,95823
2022-12-01T03:59:24.027Z,95823
2022-12-01T04:00:33.700Z,95825
2022-12-01T04:01:42.380Z,95825
2022-12-01T04:02:52.050Z,95820
2022-12-01T04:04:01.704Z,95826
2022-12-01T04:05:10.389Z,95823
2022-12-01T04:06:19.036Z,95826
2022-12-01T04:07:28.786Z,95823
2022-12-01T04:08:36.408Z,95829
2022-12-01T04:09:45.058Z,95825
2022-12-01T04:10:54.715Z,95830
2022-12-01T04:12:03.411Z,95821
2022-12-01T04:13:13.122Z,95827
2022-12-01T04:14:22.801Z,95826
2022-12-01T04:15:32.464Z,95833
2022-12-01T04:16:42.187Z,95831
2022-12-01T04:17:49.846Z,95830
2022-12-01T04:18:59.515Z,95826
2022-12-01T04:20:09.243Z,95829
2022-12-01T04:21:18.886Z,95825
2022-12-01T04:22:28.622Z,95829
2022-12-01T04:23:37.299Z,95823
2022-12-01T04:24:46.968Z,95829
2022-12-01T04:25:56.672Z,95829
2022-12-01T04:27:04.328Z,95825
2022-12-01T04:28:13.990Z,95823
2022-12-01T04:29:22.653Z,95824
2022-12-01T04:30:31.322Z,95821
2022-12-01T04:31:41.075Z,95826
2022-12-01T04:32:49.733Z,95821
2022-12-01T04:33:58.494Z,95824
2022-12-01T04:35:08.152Z,95822
2022-12-01T04:36:16.923Z,95826
2022-12-01T04:37:25.576Z,95824
2022-12-01T04:38:35.225Z,95818
2022-12-01T04:39:43.896Z,95822
2022-12-01T04:40:53.561Z,95826
2022-12-01T04:42:02.222Z,95824
2022-12-01T04:43:11.897Z,95819
2022-12-01T04:44:20.558Z,95818
2022-12-01T04:45:30.213Z,95821
2022-12-01T04:46:39.914Z,95820
2022-12-01T04:47:48.536Z,95826
2022-12-01T04:48:58.224Z,95823
2022-12-01T04:50:06.877Z,95824
2022-12-01T04:51:15.549Z,95819
2022-12-01T04:52:26.093Z,95827
2022-12-01T04:53:35.958Z,95819
2022-12-01T04:54:44.684Z,95820
2022-12-01T04:55:54.333Z,95822
2022-12-01T04:57:01.980Z,95821
2022-12-01T04:58:10.643Z,95823
2022-12-01T04:59:20.317Z,95825
2022-12-01T05:00:29.208Z,95826
2022-12-01T05:01:38.856Z,95826
2022-12-01T05:02:47.498Z,95827
2022-12-01T05:03:56.187Z,95825
2022-12-01T05:05:05.855Z,95825
2022-12-01T05:06:14.538Z,95826
2022-12-01T05:07:23.224Z,95828
2022-12-01T05:08:31.867Z,95826
2022-12-01T05:09:40.517Z,95831
2022-12-01T05:10:50.185Z,95829
2022-12-01T05:11:58.874Z,95834
2022-12-01T05:13:08.558Z,95832
2022-12-01T05:14:18.222Z,95833
2022-12-01T05:15:26.874Z,95831
2022-12-01T05:16:36.573Z,95828
2022-12-01T05:17:45.349Z,95834
2022-12-01T05:18:54.041Z,95834
2022-12-01T05:20:03.723Z,95834
2022-12-01T05:21:13.372Z,95830
2022-12-01T05:22:36.630Z,95836
2022-12-01T05:23:33.689Z,95835
2022-12-01T05:24:41.382Z,95837
2022-12-01T05:25:50.023Z,95833
2022-12-01T05:26:58.771Z,95837
2022-12-01T05:28:07.434Z,95831
2022-12-01T05:29:17.149Z,95834
2022-12-01T05:30:28.658Z,95833
2022-12-01T05:31:35.559Z,95828
2022-12-01T05:32:45.221Z,95829
2022-12-01T05:33:52.855Z,95827
2022-12-01T05:35:01.531Z,95830
2022-12-01T05:36:11.186Z,95831
2022-12-01T05:37:19.842Z,95832
2022-12-01T05:38:29.529Z,95836
2022-12-01T05:39:38.185Z,95837
2022-12-01T05:40:47.903Z,95836
2022-12-01T05:41:57.548Z,95834
2022-12-01T05:43:06.222Z,95838
2022-12-01T05:44:15.899Z,95836
2022-12-01T05:45:25.706Z,95835
2022-12-01T05:46:35.287Z,95834
2022-12-01T05:47:44.970Z,95836
2022-12-01T05:48:52.643Z,95835
2022-12-01T05:50:05.675Z,95830
2022-12-01T05:51:11.981Z,95832
2022-12-01T05:52:18.688Z,95835
2022-12-01T05:53:28.346Z,95836
2022-12-01T05:54:37.002Z,95834
2022-12-01T05:55:45.660Z,95832
2022-12-01T05:56:55.485Z,95829
2022-12-01T05:58:04.007Z,95836
2022-12-01T05:59:12.667Z,95839
2022-12-01T06:00:22.324Z,95838
2022-12-01T06:01:30.977Z,95836
2022-12-01T06:02:39.640Z,95837
2022-12-01T06:03:48.456Z,95837
2022-12-01T06:04:57.068Z,95837
2022-12-01T06:06:06.750Z,95837
2022-12-01T06:07:14.429Z,95828
2022-12-01T06:08:23.096Z,95838
2022-12-01T06:09:32.751Z,95841
2022-12-01T06:10:40.408Z,95839
2022-12-01T06:11:52.447Z,95842
2022-12-01T06:12:59.757Z,95841
2022-12-01T06:14:08.370Z,95839
2022-12-01T06:15:18.187Z,95839
2022-12-01T06:16:25.913Z,95839
2022-12-01T06:17:39.872Z,95842
2022-12-01T06:18:45.190Z,95839
2022-12-01T06:19:53.845Z,95842
2022-12-01T06:21:03.511Z,95848
2022-12-01T06:22:12.184Z,95846
2022-12-01T06:23:20.828Z,95846
2022-12-01T06:24:31.471Z,95846
2022-12-01T06:25:40.122Z,95843
2022-12-01T06:26:49.790Z,95844
2022-12-01T06:27:59.448Z,95841
2022-12-01T06:29:07.145Z,95844
2022-12-01T06:30:15.776Z,95850
2022-12-01T06:31:24.503Z,95848
2022-12-01T06:32:34.146Z,95848
2022-12-01T06:33:43.823Z,95848
2022-12-01T06:34:52.477Z,95851
2022-12-01T06:36:02.147Z,95850
2022-12-01T06:37:11.902Z,95849
2022-12-01T06:38:21.567Z,95846
2022-12-01T06:39:31.242Z,95857
2022-12-01T06:40:40.902Z,95852
2022-12-01T06:41:50.592Z,95853
2022-12-01T06:42:59.257Z,95858
2022-12-01T06:44:07.976Z,95856
2022-12-01T06:45:17.672Z,95860
2022-12-01T06:46:26.397Z,95858
2022-12-01T06:47:34.977Z,95863
2022-12-01T06:48:44.650Z,95866
2022-12-01T06:49:52.552Z,95864
2022-12-01T06:51:01.055Z,95861
2022-12-01T06:52:10.720Z,95863
2022-12-01T06:53:19.386Z,95862
2022-12-01T06:54:29.047Z,95866
2022-12-01T06:55:37.746Z,95864
2022-12-01T06:56:46.390Z,95858
2022-12-01T06:57:55.065Z,95864
2022-12-01T06:59:04.864Z,95865
2022-12-01T07:00:13.549Z,95865
2022-12-01T07:01:22.338Z,95865
2022-12-01T07:02:31.952Z,95866
2022-12-01T07:03:41.553Z,95868
2022-12-01T07:04:50.229Z,95869
2022-12-01T07:05:59.062Z,95871
2022-12-01T07:07:08.753Z,95868
2022-12-01T07:08:17.430Z,95869
2022-12-01T07:09:27.098Z,95868
2022-12-01T07:10:35.747Z,95872
2022-12-01T07:11:44.529Z,95869
2022-12-01T07:12:54.217Z,95868
2022-12-01T07:14:01.864Z,95873
2022-12-01T07:15:10.534Z,95871
2022-12-01T07:16:20.221Z,95866
2022-12-01T07:17:29.879Z,95867
2022-12-01T07:18:38.562Z,95870
2022-12-01T07:19:47.586Z,95870
2022-12-01T07:20:56.883Z,95865
2022-12-01T07:22:06.538Z,95863
2022-12-01T07:23:15.202Z,95862
2022-12-01T07:24:23.882Z,95864
2022-12-01T07:25:33.560Z,95863
2022-12-01T07:26:42.228Z,95866
2022-12-01T07:27:51.931Z,95860
2022-12-01T07:29:00.629Z,95868
2022-12-01T07:30:10.403Z,95868
2022-12-01T07:31:20.127Z,95871
2022-12-01T07:32:28.722Z,95874
2022-12-01T07:33:37.421Z,95876
2022-12-01T07:34:47.075Z,95877
2022-12-01T07:35:54.758Z,95881
2022-12-01T07:37:03.419Z,95879
2022-12-01T07:38:12.079Z,95878
2022-12-01T07:39:21.713Z,95881
2022-12-01T07:40:31.374Z,95880
2022-12-01T07:41:39.063Z,95881
2022-12-01T07:42:47.739Z,95880
2022-12-01T07:43:57.404Z,95885
2022-12-01T07:45:05.075Z,95881
2022-12-01T07:46:20.564Z,95879
2022-12-01T07:47:25.417Z,95883
2022-12-01T07:48:35.070Z,95887
2022-12-01T07:49:44.786Z,95887
2022-12-01T07:50:54.457Z,95887
2022-12-01T07:52:04.140Z,95888
2022-12-01T07:53:13.802Z,95888
2022-12-01T07:54:21.456Z,95891
2022-12-01T07:55:31.129Z,95887
2022-12-01T07:56:39.774Z,95888
2022-12-01T07:57:48.456Z,95891
2022-12-01T07:58:58.187Z,95892
2022-12-01T08:00:05.832Z,95897
2022-12-01T08:01:14.513Z,95894
2022-12-01T08:02:24.195Z,95890
2022-12-01T08:03:32.835Z,95894
2022-12-01T08:04:41.567Z,95890
2022-12-01T08:05:50.268Z,95893
2022-12-01T08:06:59.920Z,95892
2022-12-01T08:08:09.692Z,95895
2022-12-01T08:09:17.253Z,95895
2022-12-01T08:10:26.164Z,95891
2022-12-01T08:11:35.765Z,95894
2022-12-01T08:12:44.467Z,95895
2022-12-01T08:13:54.129Z,95894
2022-12-01T08:15:03.805Z,95901
2022-12-01T08:16:12.600Z,95894
2022-12-01T08:17:22.275Z,95894
2022-12-01T08:18:30.953Z,95894
2022-12-01T08:19:39.624Z,95896
2022-12-01T08:20:49.289Z,95899
2022-12-01T08:21:58.219Z,95897
2022-12-01T08:23:06.726Z,95897
2022-12-01T08:24:15.389Z,95898
2022-12-01T08:25:24.052Z,95895
2022-12-01T08:26:33.718Z,95892
2022-12-01T08:27:42.419Z,95891
2022-12-01T08:28:51.131Z,95890
2022-12-01T08:30:00.789Z,95893
2022-12-01T08:31:08.523Z,95889
2022-12-01T08:32:18.112Z,95893
2022-12-01T08:33:26.794Z,95886
2022-12-01T08:34:35.450Z,95895
2022-12-01T08:35:45.135Z,95898
2022-12-01T08:36:54.798Z,95898
2022-12-01T08:38:04.479Z,95898
2022-12-01T08:39:14.149Z,95900
2022-12-01T08:40:23.856Z,95897
2022-12-01T08:41:33.487Z,95897
2022-12-01T08:42:43.152Z,95894
2022-12-01T08:44:00.900Z,95900
2022-12-01T08:45:03.557Z,95901
2022-12-01T08:46:12.184Z,95898
2022-12-01T08:47:21.800Z,95901
2022-12-01T08:48:29.448Z,95903
2022-12-01T08:49:39.138Z,95900
2022-12-01T08:50:48.811Z,95903
2022-12-01T08:51:56.491Z,95899
2022-12-01T08:53:05.144Z,95897
2022-12-01T08:54:13.826Z,95900
2022-12-01T08:55:22.450Z,95898
2022-12-01T08:56:32.162Z,95897
2022-12-01T08:57:40.817Z,95899
2022-12-01T08:58:49.513Z,95897
2022-12-01T08:59:58.184Z,95896
2022-12-01T09:01:06.843Z,95896
2022-12-01T09:02:15.557Z,95902
2022-12-01T09:03:24.208Z,95906
2022-12-01T09:04:32.841Z,95905
2022-12-01T09:05:41.502Z,95902
2022-12-01T09:06:51.186Z,95902
2022-12-01T09:08:00.926Z,95904
2022-12-01T09:09:08.537Z,95907
2022-12-01T09:10:17.242Z,95903
2022-12-01T09:11:26.910Z,95910
2022-12-01T09:12:34.574Z,95908
2022-12-01T09:13:43.311Z,95908
2022-12-01T09:14:53.007Z,95915
2022-12-01T09:16:02.681Z,95913
2022-12-01T09:17:12.330Z,95913
2022-12-01T09:18:20.035Z,95915
2022-12-01T09:19:28.726Z,95914
2022-12-01T09:20:37.423Z,95908
2022-12-01T09:21:47.107Z,95915
2022-12-01T09:22:56.788Z,95911
2022-12-01T09:24:05.470Z,95913
2022-12-01T09:25:15.294Z,95913
2022-12-01T09:26:23.978Z,95912
2022-12-01T09:27:32.634Z,95912
2022-12-01T09:28:41.288Z,95912
2022-12-01T09:29:51.289Z,95916
2022-12-01T09:31:00.790Z,95913
2022-12-01T09:32:09.399Z,95911
2022-12-01T09:33:18.069Z,95906
2022-12-01T09:34:27.804Z,95910
2022-12-01T09:35:38.460Z,95913
2022-12-01T09:36:47.148Z,95910
2022-12-01T09:37:56.844Z,95912
2022-12-01T09:39:06.612Z,95908
2022-12-01T09:40:15.353Z,95910
2022-12-01T09:41:24.023Z,95912
2022-12-01T09:42:35.458Z,95907
2022-12-01T09:43:42.391Z,95907
2022-12-01T09:44:52.063Z,95910
2022-12-01T09:45:59.760Z,95907
2022-12-01T09:47:08.504Z,95902
2022-12-01T09:48:18.219Z,95901
2022-12-01T09:49:27.890Z,95904
2022-12-01T09:50:37.585Z,95898
2022-12-01T09:51:46.291Z,95899
2022-12-01T09:52:53.933Z,95899
2022-12-01T09:54:03.670Z,95896
2022-12-01T09:55:11.342Z,95898
2022-12-01T09:56:19.991Z,95892
2022-12-01T09:57:29.656Z,95895
2022-12-01T09:58:37.347Z,95893
2022-12-01T09:59:46.158Z,95892
2022-12-01T10:00:55.719Z,95889
2022-12-01T10:02:04.398Z,95890
2022-12-01T10:03:14.029Z,95893
2022-12-01T10:04:22.746Z,95890
2022-12-01T10:05:31.435Z,95888
2022-12-01T10:06:42.102Z,95886
2022-12-01T10:07:50.728Z,95890
2022-12-01T10:08:59.366Z,95883
2022-12-01T10:10:08.012Z,95881
2022-12-01T10:11:17.716Z,95881
2022-12-01T10:12:27.410Z,95877
2022-12-01T10:13:36.079Z,95880
2022-12-01T10:14:44.753Z,95879
2022-12-01T10:15:54.500Z,95877
2022-12-01T10:27:23.899Z,95864
2022-12-01T10:28:32.570Z,95866
2022-12-01T10:29:46.473Z,95866
2022-12-01T10:30:51.954Z,95860
2022-12-01T10:32:01.681Z,95865
2022-12-01T10:33:10.371Z,95862
2022-12-01T10:34:20.077Z,95864
2022-12-01T10:35:29.777Z,95862
2022-12-01T10:36:38.425Z,95858
2022-12-01T10:37:48.202Z,95855
2022-12-01T10:38:56.962Z,95856
2022-12-01T10:40:06.770Z,95854
2022-12-01T10:41:15.443Z,95854
2022-12-01T10:42:24.172Z,95853
2022-12-01T10:43:33.876Z,95855
2022-12-01T10:44:43.567Z,95852
2022-12-01T10:45:53.592Z,95848
2022-12-01T10:47:02.033Z,95856
2022-12-01T10:48:10.697Z,95850
2022-12-01T10:49:19.385Z,95848
2022-12-01T10:50:28.045Z,95849
2022-12-01T10:51:37.727Z,95852
2022-12-01T10:52:45.483Z,95849
2022-12-01T10:53:54.144Z,95849
2022-12-01T10:55:03.887Z,95847
2022-12-01T10:56:11.550Z,95847
2022-12-01T10:57:20.281Z,95851
2022-12-01T10:58:29.968Z,95851
2022-12-01T10:59:38.661Z,95847
2022-12-01T11:00:59.418Z,95847
2022-12-01T11:01:59.143Z,95844
2022-12-01T11:03:08.919Z,95843
2022-12-01T11:04:19.327Z,95845
2022-12-01T11:05:28.002Z,95844
2022-12-01T11:06:36.785Z,95840
2022-12-01T11:07:45.532Z,95842
2022-12-01T11:08:54.151Z,95841
2022-12-01T11:10:03.827Z,95840
2022-12-01T11:11:12.515Z,95838
2022-12-01T11:12:21.217Z,95837
2022-12-01T11:13:30.897Z,95834
2022-12-01T11:14:39.555Z,95837
2022-12-01T11:15:49.246Z,95835
2022-12-01T11:16:58.939Z,95834
2022-12-01T11:18:08.618Z,95839
2022-12-01T11:19:21.856Z,95832
2022-12-01T11:20:29.030Z,95833
2022-12-01T11:21:37.654Z,95833
2022-12-01T11:22:47.345Z,95829
2022-12-01T11:23:56.064Z,95830
2022-12-01T11:25:03.753Z,95832
2022-12-01T11:26:12.423Z,95831
2022-12-01T11:27:21.101Z,95827
2022-12-01T11:28:30.797Z,95830
2022-12-01T11:29:38.508Z,95833
2022-12-01T11:30:47.541Z,95830
2022-12-01T11:31:57.869Z,95833
2022-12-01T11:33:07.506Z,95826
2022-12-01T11:34:16.186Z,95826
2022-12-01T11:35:24.900Z,95834
2022-12-01T11:36:33.581Z,95827
2022-12-01T11:37:46.935Z,95831
2022-12-01T11:38:53.938Z,95832
2022-12-01T11:40:02.620Z,95826
2022-12-01T11:41:12.331Z,95828
2022-12-01T11:42:20.989Z,95827
2022-12-01T11:43:29.654Z,95826
2022-12-01T11:44:53.757Z,95826
2022-12-01T11:45:49.026Z,95827
2022-12-01T11:47:21.410Z,95829
2022-12-01T11:48:09.320Z,95826
2022-12-01T11:49:18.986Z,95826
2022-12-01T11:50:28.691Z,95826
2022-12-01T11:51:38.355Z,95828
2022-12-01T11:52:47.065Z,95827
2022-12-01T11:53:56.768Z,95825
2022-12-01T11:56:16.185Z,95822
2022-12-01T11:57:34.004Z,95825
2022-12-01T11:58:35.541Z,95823
2022-12-01T11:59:45.307Z,95823
2022-12-01T12:00:53.984Z,95823
2022-12-01T12:02:02.682Z,95822
2022-12-01T12:03:11.365Z,95820
2022-12-01T12:04:21.056Z,95820
2022-12-01T12:05:30.761Z,95819
2022-12-01T12:06:40.800Z,95816
2022-12-01T12:07:49.181Z,95818
2022-12-01T12:08:58.826Z,95824
2022-12-01T12:10:07.478Z,95819
2022-12-01T12:11:16.164Z,95816
2022-12-01T12:12:24.835Z,95820
2022-12-01T12:13:34.537Z,95821
2022-12-01T12:14:44.242Z,95821
2022-12-01T12:15:52.918Z,95817
2022-12-01T12:17:01.574Z,95819
2022-12-01T12:18:11.321Z,95816
2022-12-01T12:19:20.450Z,95819
2022-12-01T12:20:29.621Z,95819
2022-12-01T12:21:39.321Z,95819
2022-12-01T12:22:52.330Z,95816
2022-12-01T12:23:58.617Z,95816
2022-12-01T12:25:06.283Z,95820
2022-12-01T12:26:15.946Z,95815
2022-12-01T12:27:25.783Z,95821
2022-12-01T12:28:33.322Z,95813
2022-12-01T12:29:41.996Z,95815
2022-12-01T12:30:50.742Z,95813
2022-12-01T12:31:59.350Z,95808
2022-12-01T12:33:09.074Z,95809
2022-12-01T12:34:18.807Z,95806
2022-12-01T12:35:28.566Z,95806
2022-12-01T12:36:38.266Z,95805
2022-12-01T12:37:45.954Z,95804
2022-12-01T12:38:54.690Z,95806
2022-12-01T12:40:04.337Z,95806
2022-12-01T12:41:12.987Z,95810
2022-12-01T12:42:22.665Z,95809
2022-12-01T12:43:32.344Z,95804
2022-12-01T12:44:42.104Z,95811
2022-12-01T12:45:50.844Z,95808
2022-12-01T12:46:59.516Z,95809
2022-12-01T12:48:09.220Z,95805
2022-12-01T12:49:20.354Z,95805
2022-12-01T12:50:27.633Z,95814
2022-12-01T12:51:37.317Z,95810
2022-12-01T12:52:46.995Z,95807
2022-12-01T12:53:56.814Z,95812
2022-12-01T12:55:06.441Z,95802
2022-12-01T12:56:15.133Z,95803
2022-12-01T12:57:24.839Z,95802
2022-12-01T12:58:32.480Z,95804
2022-12-01T12:59:41.145Z,95799
2022-12-01T13:00:50.805Z,95802
2022-12-01T13:02:00.587Z,95802
2022-12-01T13:03:11.256Z,95807
2022-12-01T13:04:18.962Z,95804
2022-12-01T13:05:27.578Z,95809
2022-12-01T13:06:37.246Z,95813
2022-12-01T13:07:45.020Z,95812
2022-12-01T13:08:54.655Z,95814
2022-12-01T13:10:03.391Z,95813
2022-12-01T13:11:12.016Z,95816
2022-12-01T13:12:21.697Z,95813
2022-12-01T13:13:30.391Z,95814
2022-12-01T13:14:39.121Z,95816
2022-12-01T13:15:48.822Z,95816
2022-12-01T13:16:56.488Z,95811
2022-12-01T13:18:05.239Z,95811
2022-12-01T13:19:14.924Z,95812
2022-12-01T13:20:24.585Z,95810
2022-12-01T13:21:34.331Z,95805
2022-12-01T13:22:41.964Z,95808
2022-12-01T13:23:51.633Z,95813
2022-12-01T13:25:01.345Z,95815
2022-12-01T13:26:11.087Z,95814
2022-12-01T13:27:20.751Z,95813
2022-12-01T13:28:30.447Z,95810
2022-12-01T13:29:43.774Z,95812
2022-12-01T13:30:49.815Z,95811
2022-12-01T13:31:57.455Z,95810
2022-12-01T13:33:06.117Z,95813
2022-12-01T13:34:15.797Z,95811
2022-12-01T13:35:24.451Z,95807
2022-12-01T13:36:49.416Z,95803
2022-12-01T13:37:44.830Z,95810
2022-12-01T13:38:54.490Z,95808
2022-12-01T13:40:04.210Z,95803
2022-12-01T13:41:11.872Z,95805
2022-12-01T13:42:20.570Z,95806
2022-12-01T13:43:30.204Z,95806
2022-12-01T13:44:38.894Z,95806
2022-12-01T13:45:48.559Z,95806
2022-12-01T13:46:57.314Z,95807
2022-12-01T13:48:05.918Z,95807
2022-12-01T13:49:15.638Z,95804
2022-12-01T13:50:23.290Z,95804
2022-12-01T13:51:32.951Z,95809
2022-12-01T13:52:42.615Z,95803
2022-12-01T13:53:52.315Z,95804
2022-12-01T13:55:02.003Z,95804
2022-12-01T13:56:10.671Z,95804
2022-12-01T13:57:19.321Z,95802
2022-12-01T13:58:29.004Z,95800
2022-12-01T13:59:37.716Z,95799
2022-12-01T14:00:46.411Z,95806
2022-12-01T14:01:55.141Z,95803
2022-12-01T14:03:03.853Z,95802
2022-12-01T14:04:12.521Z,95805
2022-12-01T14:05:21.232Z,95801
2022-12-01T14:06:28.881Z,95798
2022-12-01T14:07:38.576Z,95803
2022-12-01T14:08:47.217Z,95797
2022-12-01T14:09:55.903Z,95800
2022-12-01T14:11:05.603Z,95801
2022-12-01T14:12:15.294Z,95800
2022-12-01T14:13:23.997Z,95796
2022-12-01T14:14:32.698Z,95798
2022-12-01T14:15:41.390Z,95801
2022-12-01T14:16:51.075Z,95801
2022-12-01T14:18:00.777Z,95804
2022-12-01T14:19:09.464Z,95802
2022-12-01T14:20:19.145Z,95801
2022-12-01T14:21:30.365Z,95800
2022-12-01T14:22:38.505Z,95797
2022-12-01T14:23:47.190Z,95809
2022-12-01T14:24:55.861Z,95803
2022-12-01T14:26:05.518Z,95806
2022-12-01T14:27:13.196Z,95807
2022-12-01T14:28:22.967Z,95805
2022-12-01T14:29:32.676Z,95804
2022-12-01T14:30:41.400Z,95809
2022-12-01T14:31:50.111Z,95808
2022-12-01T14:32:58.707Z,95809
2022-12-01T14:34:08.406Z,95811
2022-12-01T14:35:19.059Z,95814
2022-12-01T14:36:26.712Z,95812
2022-12-01T14:37:35.369Z,95809
2022-12-01T14:38:45.053Z,95809
2022-12-01T14:39:52.766Z,95811
2022-12-01T14:41:02.455Z,95807
2022-12-01T14:42:11.176Z,95816
2022-12-01T14:43:20.923Z,95806
2022-12-01T14:44:29.636Z,95807
2022-12-01T14:45:39.292Z,95817
2022-12-01T14:46:49.070Z,95815
2022-12-01T14:47:57.655Z,95817
2022-12-01T14:49:06.324Z,95815
2022-12-01T14:50:16.001Z,95820
2022-12-01T14:51:24.726Z,95815
2022-12-01T14:52:34.394Z,95819
2022-12-01T14:53:43.089Z,95816
2022-12-01T14:54:51.913Z,95820
2022-12-01T14:56:01.422Z,95818
2022-12-01T14:57:13.732Z,95818
2022-12-01T14:58:18.782Z,95821
2022-12-01T14:59:28.475Z,95819
2022-12-01T15:00:38.261Z,95816